sensor_id;sensor_type;location;lat;lon;timestamp;pressure;altitude;pressure_sealevel;temperature;humidity
8229;BME280;4155;50.118;8.714;2022-08-01T00:00:50;100054.53;;;23.62;59.03
8229;BME280;4155;50.118;8.714;2022-08-01T00:03:18;100056.72;;;23.50;59.62
8229;BME280;4155;50.118;8.714;2022-08-01T00:05:47;100061.69;;;23.37;60.07
8229;BME280;4155;50.118;8.714;2022-08-01T00:08:15;100064.72;;;23.36;60.11
8229;BME280;4155;50.118;8.714;2022-08-01T00:10:43;100055.13;;;23.38;60.18
8229;BME280;4155;50.118;8.714;2022-08-01T00:13:11;100048.06;;;23.27;60.22
8229;BME280;4155;50.118;8.714;2022-08-01T00:15:39;100053.28;;;23.29;60.22
8229;BME280;4155;50.118;8.714;2022-08-01T00:18:17;100061.16;;;23.35;60.42
8229;BME280;4155;50.118;8.714;2022-08-01T00:20:44;100063.03;;;23.45;60.21
8229;BME280;4155;50.118;8.714;2022-08-01T00:23:12;100066.31;;;23.47;59.96
8229;BME280;4155;50.118;8.714;2022-08-01T00:25:39;100056.22;;;23.43;60.46
8229;BME280;4155;50.118;8.714;2022-08-01T00:28:08;100055.72;;;23.30;60.86
8229;BME280;4155;50.118;8.714;2022-08-01T00:30:36;100056.78;;;23.40;61.04
8229;BME280;4155;50.118;8.714;2022-08-01T00:33:04;100048.38;;;23.21;61.44
8229;BME280;4155;50.118;8.714;2022-08-01T00:35:34;100050.03;;;23.06;61.96
8229;BME280;4155;50.118;8.714;2022-08-01T00:38:02;100050.63;;;23.03;62.07
8229;BME280;4155;50.118;8.714;2022-08-01T00:40:30;100044.88;;;22.95;62.47
8229;BME280;4155;50.118;8.714;2022-08-01T00:42:58;100041.66;;;22.88;62.92
8229;BME280;4155;50.118;8.714;2022-08-01T00:45:27;100046.25;;;22.82;63.32
8229;BME280;4155;50.118;8.714;2022-08-01T00:47:55;100046.00;;;22.78;63.05
8229;BME280;4155;50.118;8.714;2022-08-01T00:50:23;100050.94;;;22.76;63.25
8229;BME280;4155;50.118;8.714;2022-08-01T00:52:51;100055.03;;;22.84;62.96
8229;BME280;4155;50.118;8.714;2022-08-01T00:55:19;100051.75;;;22.77;63.77
8229;BME280;4155;50.118;8.714;2022-08-01T00:57:48;100058.59;;;22.69;63.63
8229;BME280;4155;50.118;8.714;2022-08-01T01:00:36;100062.16;;;22.60;64.10
8229;BME280;4155;50.118;8.714;2022-08-01T01:03:21;100062.72;;;22.57;64.33
8229;BME280;4155;50.118;8.714;2022-08-01T01:06:21;100062.16;;;22.49;64.93
8229;BME280;4155;50.118;8.714;2022-08-01T01:09:02;100060.78;;;22.42;65.01
8229;BME280;4155;50.118;8.714;2022-08-01T01:11:37;100067.63;;;22.49;65.12
8229;BME280;4155;50.118;8.714;2022-08-01T01:14:16;100072.28;;;22.49;64.93
8229;BME280;4155;50.118;8.714;2022-08-01T01:16:51;100070.09;;;22.46;65.41
8229;BME280;4155;50.118;8.714;2022-08-01T01:19:23;100074.16;;;22.53;65.09
8229;BME280;4155;50.118;8.714;2022-08-01T01:22:02;100072.81;;;22.51;65.30
8229;BME280;4155;50.118;8.714;2022-08-01T01:24:43;100066.78;;;22.54;65.13
8229;BME280;4155;50.118;8.714;2022-08-01T01:27:18;100076.09;;;22.68;64.56
8229;BME280;4155;50.118;8.714;2022-08-01T01:29:54;100073.34;;;22.73;64.53
8229;BME280;4155;50.118;8.714;2022-08-01T01:32:31;100071.16;;;22.70;64.76
8229;BME280;4155;50.118;8.714;2022-08-01T01:35:05;100074.19;;;22.59;65.04
8229;BME280;4155;50.118;8.714;2022-08-01T01:37:35;100071.19;;;22.50;65.41
8229;BME280;4155;50.118;8.714;2022-08-01T01:40:07;100073.91;;;22.40;65.81
8229;BME280;4155;50.118;8.714;2022-08-01T01:42:38;100079.94;;;22.37;66.08
8229;BME280;4155;50.118;8.714;2022-08-01T01:45:08;100079.38;;;22.25;66.28
8229;BME280;4155;50.118;8.714;2022-08-01T01:47:38;100073.63;;;22.11;66.96
8229;BME280;4155;50.118;8.714;2022-08-01T01:50:08;100083.75;;;22.15;67.06
8229;BME280;4155;50.118;8.714;2022-08-01T01:52:39;100076.94;;;22.23;66.41
8229;BME280;4155;50.118;8.714;2022-08-01T01:55:08;100080.47;;;22.29;66.58
8229;BME280;4155;50.118;8.714;2022-08-01T01:57:39;100081.81;;;22.21;66.50
8229;BME280;4155;50.118;8.714;2022-08-01T02:00:11;100076.09;;;22.17;67.26
8229;BME280;4155;50.118;8.714;2022-08-01T02:02:40;100077.47;;;22.15;67.14
8229;BME280;4155;50.118;8.714;2022-08-01T02:05:10;100087.00;;;22.07;67.02
8229;BME280;4155;50.118;8.714;2022-08-01T02:07:40;100089.47;;;22.09;67.37
8229;BME280;4155;50.118;8.714;2022-08-01T02:10:10;100090.81;;;22.01;67.48
8229;BME280;4155;50.118;8.714;2022-08-01T02:12:41;100083.66;;;22.00;67.83
8229;BME280;4155;50.118;8.714;2022-08-01T02:15:14;100093.78;;;22.00;67.98
8229;BME280;4155;50.118;8.714;2022-08-01T02:17:47;100097.94;;;22.07;67.65
8229;BME280;4155;50.118;8.714;2022-08-01T02:20:17;100095.22;;;22.12;67.49
8229;BME280;4155;50.118;8.714;2022-08-01T02:22:47;100108.03;;;22.22;67.15
8229;BME280;4155;50.118;8.714;2022-08-01T02:25:20;100098.78;;;22.28;66.98
8229;BME280;4155;50.118;8.714;2022-08-01T02:27:54;100088.94;;;22.27;66.44
8229;BME280;4155;50.118;8.714;2022-08-01T02:30:25;100096.59;;;22.25;66.48
8229;BME280;4155;50.118;8.714;2022-08-01T02:33:00;100094.41;;;22.32;66.21
8229;BME280;4155;50.118;8.714;2022-08-01T02:35:32;100093.34;;;22.33;66.46
8229;BME280;4155;50.118;8.714;2022-08-01T02:38:26;100090.56;;;22.43;65.79
8229;BME280;4155;50.118;8.714;2022-08-01T02:40:58;100088.94;;;22.42;66.05
8229;BME280;4155;50.118;8.714;2022-08-01T02:43:28;100087.03;;;22.43;66.41
8229;BME280;4155;50.118;8.714;2022-08-01T02:46:01;100094.41;;;22.47;66.17
8229;BME280;4155;50.118;8.714;2022-08-01T02:48:32;100081.84;;;22.36;66.54
8229;BME280;4155;50.118;8.714;2022-08-01T02:51:03;100091.13;;;22.35;66.68
8229;BME280;4155;50.118;8.714;2022-08-01T02:53:33;100097.16;;;22.37;66.13
8229;BME280;4155;50.118;8.714;2022-08-01T02:56:11;100083.75;;;22.41;66.14
8229;BME280;4155;50.118;8.714;2022-08-01T02:58:41;100089.22;;;22.31;66.42
8229;BME280;4155;50.118;8.714;2022-08-01T03:01:13;100085.66;;;22.20;66.68
8229;BME280;4155;50.118;8.714;2022-08-01T03:03:45;100087.84;;;22.23;66.70
8229;BME280;4155;50.118;8.714;2022-08-01T03:06:14;100085.94;;;22.23;66.96
8229;BME280;4155;50.118;8.714;2022-08-01T03:08:43;100089.47;;;22.14;67.40
8229;BME280;4155;50.118;8.714;2022-08-01T03:11:12;100099.56;;;22.08;67.07
8229;BME280;4155;50.118;8.714;2022-08-01T03:13:41;100086.75;;;22.14;67.41
8229;BME280;4155;50.118;8.714;2022-08-01T03:16:13;100087.53;;;22.04;67.44
8229;BME280;4155;50.118;8.714;2022-08-01T03:18:41;100090.81;;;22.11;67.45
8229;BME280;4155;50.118;8.714;2022-08-01T03:21:12;100096.84;;;22.08;67.33
8229;BME280;4155;50.118;8.714;2022-08-01T03:23:42;100093.28;;;22.08;67.45
8229;BME280;4155;50.118;8.714;2022-08-01T03:26:10;100092.22;;;22.14;67.79
8229;BME280;4155;50.118;8.714;2022-08-01T03:28:38;100097.41;;;22.20;67.18
8229;BME280;4155;50.118;8.714;2022-08-01T03:31:09;100095.78;;;22.25;67.34
8229;BME280;4155;50.118;8.714;2022-08-01T03:33:41;100093.84;;;22.30;66.49
8229;BME280;4155;50.118;8.714;2022-08-01T03:36:10;100091.41;;;22.29;66.42
8229;BME280;4155;50.118;8.714;2022-08-01T03:38:52;100090.59;;;22.33;66.43
8229;BME280;4155;50.118;8.714;2022-08-01T03:41:25;100093.84;;;22.30;66.83
8229;BME280;4155;50.118;8.714;2022-08-01T03:43:57;100094.66;;;22.31;66.62
8229;BME280;4155;50.118;8.714;2022-08-01T03:46:28;100103.97;;;22.25;66.79
8229;BME280;4155;50.118;8.714;2022-08-01T03:49:02;100097.44;;;22.36;66.92
8229;BME280;4155;50.118;8.714;2022-08-01T03:51:32;100092.25;;;22.44;66.34
8229;BME280;4155;50.118;8.714;2022-08-01T03:54:01;100088.41;;;22.35;66.65
8229;BME280;4155;50.118;8.714;2022-08-01T03:56:29;100101.50;;;22.28;66.62
8229;BME280;4155;50.118;8.714;2022-08-01T03:58:59;100100.97;;;22.26;66.74
8229;BME280;4155;50.118;8.714;2022-08-01T04:01:27;100097.97;;;22.22;67.24
8229;BME280;4155;50.118;8.714;2022-08-01T04:03:59;100091.13;;;22.25;67.10
8229;BME280;4155;50.118;8.714;2022-08-01T04:06:28;100097.69;;;22.29;66.89
8229;BME280;4155;50.118;8.714;2022-08-01T04:08:57;100099.06;;;22.37;66.71
8229;BME280;4155;50.118;8.714;2022-08-01T04:11:26;100094.41;;;22.32;66.60
8229;BME280;4155;50.118;8.714;2022-08-01T04:13:56;100092.50;;;22.28;67.10
8229;BME280;4155;50.118;8.714;2022-08-01T04:18:52;100102.03;;;22.20;67.33
8229;BME280;4155;50.118;8.714;2022-08-01T04:21:23;100110.22;;;22.20;66.89
8229;BME280;4155;50.118;8.714;2022-08-01T04:23:55;100106.69;;;22.14;67.67
8229;BME280;4155;50.118;8.714;2022-08-01T04:26:26;100102.31;;;22.29;66.89
8229;BME280;4155;50.118;8.714;2022-08-01T04:28:54;100103.13;;;22.19;67.32
8229;BME280;4155;50.118;8.714;2022-08-01T04:31:24;100111.63;;;22.22;66.97
8229;BME280;4155;50.118;8.714;2022-08-01T04:33:54;100112.72;;;22.32;67.00
8229;BME280;4155;50.118;8.714;2022-08-01T04:36:25;100110.25;;;22.40;66.57
8229;BME280;4155;50.118;8.714;2022-08-01T04:38:57;100109.16;;;22.51;66.24
8229;BME280;4155;50.118;8.714;2022-08-01T04:41:28;100111.63;;;22.58;66.13
8229;BME280;4155;50.118;8.714;2022-08-01T04:43:57;100104.22;;;22.74;65.63
8229;BME280;4155;50.118;8.714;2022-08-01T04:46:27;100113.53;;;22.83;65.19
8229;BME280;4155;50.118;8.714;2022-08-01T04:48:56;100103.72;;;22.97;64.66
8229;BME280;4155;50.118;8.714;2022-08-01T04:51:26;100106.44;;;23.07;64.40
8229;BME280;4155;50.118;8.714;2022-08-01T04:53:54;100111.59;;;23.14;63.85
8229;BME280;4155;50.118;8.714;2022-08-01T04:56:22;100107.53;;;23.01;64.16
8229;BME280;4155;50.118;8.714;2022-08-01T04:58:50;100114.38;;;22.89;64.99
8229;BME280;4155;50.118;8.714;2022-08-01T05:01:48;100117.66;;;22.91;64.92
8229;BME280;4155;50.118;8.714;2022-08-01T05:04:16;100116.28;;;22.98;65.18
8229;BME280;4155;50.118;8.714;2022-08-01T05:06:45;100122.28;;;23.05;64.26
8229;BME280;4155;50.118;8.714;2022-08-01T05:09:12;100120.91;;;23.03;64.13
8229;BME280;4155;50.118;8.714;2022-08-01T05:11:40;100132.69;;;22.93;64.65
8229;BME280;4155;50.118;8.714;2022-08-01T05:14:07;100127.50;;;22.92;65.01
8229;BME280;4155;50.118;8.714;2022-08-01T05:16:35;100130.22;;;22.92;64.84
8229;BME280;4155;50.118;8.714;2022-08-01T05:19:03;100129.97;;;22.93;65.18
8229;BME280;4155;50.118;8.714;2022-08-01T05:21:30;100128.03;;;22.78;65.23
8229;BME280;4155;50.118;8.714;2022-08-01T05:23:59;100138.41;;;22.81;65.09
8229;BME280;4155;50.118;8.714;2022-08-01T05:26:27;100143.06;;;22.71;65.42
8229;BME280;4155;50.118;8.714;2022-08-01T05:28:57;100143.91;;;22.76;65.48
8229;BME280;4155;50.118;8.714;2022-08-01T05:31:25;100141.72;;;22.68;65.58
8229;BME280;4155;50.118;8.714;2022-08-01T05:33:52;100144.16;;;22.75;65.68
8229;BME280;4155;50.118;8.714;2022-08-01T05:36:20;100148.28;;;22.67;65.68
8229;BME280;4155;50.118;8.714;2022-08-01T05:38:48;100148.81;;;22.69;66.04
8229;BME280;4155;50.118;8.714;2022-08-01T05:41:17;100152.09;;;22.71;65.69
8229;BME280;4155;50.118;8.714;2022-08-01T05:43:45;100155.09;;;22.60;66.35
8229;BME280;4155;50.118;8.714;2022-08-01T05:46:12;100148.28;;;22.67;65.99
8229;BME280;4155;50.118;8.714;2022-08-01T05:48:40;100144.44;;;22.68;66.08
8229;BME280;4155;50.118;8.714;2022-08-01T05:51:08;100147.97;;;22.64;65.97
8229;BME280;4155;50.118;8.714;2022-08-01T05:53:36;100155.66;;;22.57;66.42
8229;BME280;4155;50.118;8.714;2022-08-01T05:56:04;100152.94;;;22.67;65.96
8229;BME280;4155;50.118;8.714;2022-08-01T05:58:33;100141.44;;;22.80;65.33
8229;BME280;4155;50.118;8.714;2022-08-01T06:01:01;100143.09;;;23.01;64.97
8229;BME280;4155;50.118;8.714;2022-08-01T06:03:28;100140.06;;;23.08;64.80
8229;BME280;4155;50.118;8.714;2022-08-01T06:05:57;100147.41;;;23.18;64.27
8229;BME280;4155;50.118;8.714;2022-08-01T06:08:25;100149.63;;;23.16;64.26
8229;BME280;4155;50.118;8.714;2022-08-01T06:10:52;100147.97;;;23.25;64.23
8229;BME280;4155;50.118;8.714;2022-08-01T06:13:20;100155.88;;;23.31;63.53
8229;BME280;4155;50.118;8.714;2022-08-01T06:15:49;100156.16;;;23.35;63.58
8229;BME280;4155;50.118;8.714;2022-08-01T06:18:17;100157.47;;;23.48;63.43
8229;BME280;4155;50.118;8.714;2022-08-01T06:20:45;100161.06;;;23.28;64.05
8229;BME280;4155;50.118;8.714;2022-08-01T06:23:13;100158.94;;;23.09;64.57
8229;BME280;4155;50.118;8.714;2022-08-01T06:25:58;100176.19;;;23.10;64.39
8229;BME280;4155;50.118;8.714;2022-08-01T06:28:25;100178.63;;;23.12;64.68
8229;BME280;4155;50.118;8.714;2022-08-01T06:30:54;100176.72;;;23.02;64.98
8229;BME280;4155;50.118;8.714;2022-08-01T06:33:22;100170.97;;;23.08;65.10
8229;BME280;4155;50.118;8.714;2022-08-01T06:35:50;100175.59;;;23.23;64.67
8229;BME280;4155;50.118;8.714;2022-08-01T06:38:18;100169.25;;;23.38;64.29
8229;BME280;4155;50.118;8.714;2022-08-01T06:40:46;100169.00;;;23.34;64.31
8229;BME280;4155;50.118;8.714;2022-08-01T06:43:14;100175.25;;;23.55;63.77
8229;BME280;4155;50.118;8.714;2022-08-01T06:45:42;100179.66;;;23.61;63.48
8229;BME280;4155;50.118;8.714;2022-08-01T06:48:11;100174.41;;;23.70;62.66
8229;BME280;4155;50.118;8.714;2022-08-01T06:50:39;100179.50;;;23.92;63.09
8229;BME280;4155;50.118;8.714;2022-08-01T06:53:06;100173.97;;;24.02;61.92
8229;BME280;4155;50.118;8.714;2022-08-01T06:55:34;100178.28;;;24.18;61.71
8229;BME280;4155;50.118;8.714;2022-08-01T06:58:02;100172.97;;;24.42;61.52
8229;BME280;4155;50.118;8.714;2022-08-01T07:00:30;100177.72;;;24.27;62.11
8229;BME280;4155;50.118;8.714;2022-08-01T07:02:58;100183.84;;;24.58;61.03
8229;BME280;4155;50.118;8.714;2022-08-01T07:05:27;100182.97;;;24.62;60.29
8229;BME280;4155;50.118;8.714;2022-08-01T07:07:57;100186.78;;;25.00;59.08
8229;BME280;4155;50.118;8.714;2022-08-01T07:10:25;100181.06;;;25.26;59.17
8229;BME280;4155;50.118;8.714;2022-08-01T07:12:52;100171.69;;;25.80;57.46
8229;BME280;4155;50.118;8.714;2022-08-01T07:15:20;100175.53;;;26.21;56.46
8229;BME280;4155;50.118;8.714;2022-08-01T07:17:52;100171.94;;;26.45;55.79
8229;BME280;4155;50.118;8.714;2022-08-01T07:20:20;100166.88;;;26.52;55.09
8229;BME280;4155;50.118;8.714;2022-08-01T07:22:49;100172.09;;;26.86;54.54
8229;BME280;4155;50.118;8.714;2022-08-01T07:25:18;100167.09;;;28.17;51.53
8229;BME280;4155;50.118;8.714;2022-08-01T07:27:45;100170.78;;;29.07;48.79
8229;BME280;4155;50.118;8.714;2022-08-01T07:30:13;100166.69;;;29.75;46.73
8229;BME280;4155;50.118;8.714;2022-08-01T07:32:41;100160.06;;;31.23;43.88
8229;BME280;4155;50.118;8.714;2022-08-01T07:35:09;100158.06;;;32.00;41.77
8229;BME280;4155;50.118;8.714;2022-08-01T07:37:37;100158.44;;;32.94;40.18
8229;BME280;4155;50.118;8.714;2022-08-01T07:40:16;100145.50;;;31.35;42.33
8229;BME280;4155;50.118;8.714;2022-08-01T07:42:44;100145.16;;;30.46;44.25
8229;BME280;4155;50.118;8.714;2022-08-01T07:45:13;100150.06;;;29.66;45.74
8229;BME280;4155;50.118;8.714;2022-08-01T07:47:40;100150.19;;;28.91;48.35
8229;BME280;4155;50.118;8.714;2022-08-01T07:50:08;100151.94;;;28.87;48.19
8229;BME280;4155;50.118;8.714;2022-08-01T07:52:36;100147.19;;;28.06;49.71
8229;BME280;4155;50.118;8.714;2022-08-01T07:55:05;100145.13;;;28.39;49.24
8229;BME280;4155;50.118;8.714;2022-08-01T07:57:34;100154.31;;;29.24;47.49
8229;BME280;4155;50.118;8.714;2022-08-01T08:00:03;100152.84;;;29.58;46.40
8229;BME280;4155;50.118;8.714;2022-08-01T08:02:32;100150.66;;;29.46;46.89
8229;BME280;4155;50.118;8.714;2022-08-01T08:05:00;100151.88;;;29.31;47.47
8229;BME280;4155;50.118;8.714;2022-08-01T08:07:27;100145.97;;;30.38;44.84
8229;BME280;4155;50.118;8.714;2022-08-01T08:09:55;100150.06;;;30.84;43.90
8229;BME280;4155;50.118;8.714;2022-08-01T08:12:23;100149.91;;;30.55;43.87
8229;BME280;4155;50.118;8.714;2022-08-01T08:14:57;100154.59;;;30.19;44.85
8229;BME280;4155;50.118;8.714;2022-08-01T08:17:25;100149.75;;;30.34;44.76
8229;BME280;4155;50.118;8.714;2022-08-01T08:19:53;100157.25;;;29.76;45.47
8229;BME280;4155;50.118;8.714;2022-08-01T08:22:21;100149.50;;;29.47;46.50
8229;BME280;4155;50.118;8.714;2022-08-01T08:24:49;100157.72;;;28.76;48.64
8229;BME280;4155;50.118;8.714;2022-08-01T08:27:16;100158.72;;;28.22;49.88
8229;BME280;4155;50.118;8.714;2022-08-01T08:29:44;100154.59;;;27.97;50.87
8229;BME280;4155;50.118;8.714;2022-08-01T08:32:13;100148.38;;;27.78;51.58
8229;BME280;4155;50.118;8.714;2022-08-01T08:34:41;100159.78;;;27.30;52.31
8229;BME280;4155;50.118;8.714;2022-08-01T08:37:10;100161.50;;;27.12;52.95
8229;BME280;4155;50.118;8.714;2022-08-01T08:39:37;100158.06;;;26.69;53.54
8229;BME280;4155;50.118;8.714;2022-08-01T08:42:08;100165.00;;;26.66;54.33
8229;BME280;4155;50.118;8.714;2022-08-01T08:44:35;100167.44;;;26.68;54.41
8229;BME280;4155;50.118;8.714;2022-08-01T08:47:11;100168.00;;;26.51;54.74
8229;BME280;4155;50.118;8.714;2022-08-01T08:49:48;100169.22;;;26.02;55.42
8229;BME280;4155;50.118;8.714;2022-08-01T08:52:18;100167.25;;;26.45;54.92
8229;BME280;4155;50.118;8.714;2022-08-01T08:54:47;100168.88;;;26.46;55.20
8229;BME280;4155;50.118;8.714;2022-08-01T08:57:15;100172.69;;;26.50;54.38
8229;BME280;4155;50.118;8.714;2022-08-01T08:59:46;100176.16;;;27.07;53.45
8229;BME280;4155;50.118;8.714;2022-08-01T09:02:13;100180.97;;;26.83;53.78
8229;BME280;4155;50.118;8.714;2022-08-01T09:04:41;100167.38;;;27.05;52.91
8229;BME280;4155;50.118;8.714;2022-08-01T09:07:11;100162.94;;;26.91;52.43
8229;BME280;4155;50.118;8.714;2022-08-01T09:09:40;100170.75;;;27.02;53.12
8229;BME280;4155;50.118;8.714;2022-08-01T09:12:09;100170.09;;;27.38;51.69
8229;BME280;4155;50.118;8.714;2022-08-01T09:14:44;100176.22;;;27.49;51.84
8229;BME280;4155;50.118;8.714;2022-08-01T09:17:12;100164.38;;;27.62;51.32
8229;BME280;4155;50.118;8.714;2022-08-01T09:19:41;100174.81;;;27.92;50.33
8229;BME280;4155;50.118;8.714;2022-08-01T09:22:16;100172.50;;;28.22;49.30
8229;BME280;4155;50.118;8.714;2022-08-01T09:24:58;100164.47;;;28.12;49.30
8229;BME280;4155;50.118;8.714;2022-08-01T09:27:27;100175.41;;;28.03;48.25
8229;BME280;4155;50.118;8.714;2022-08-01T09:30:08;100178.53;;;28.24;48.28
8229;BME280;4155;50.118;8.714;2022-08-01T09:32:53;100180.28;;;28.56;47.42
8229;BME280;4155;50.118;8.714;2022-08-01T09:35:23;100172.28;;;28.91;46.96
8229;BME280;4155;50.118;8.714;2022-08-01T09:38:15;100173.53;;;29.69;45.81
8229;BME280;4155;50.118;8.714;2022-08-01T09:40:54;100176.41;;;29.64;45.38
8229;BME280;4155;50.118;8.714;2022-08-01T09:43:25;100173.38;;;29.83;44.99
8229;BME280;4155;50.118;8.714;2022-08-01T09:45:55;100166.47;;;29.54;45.18
8229;BME280;4155;50.118;8.714;2022-08-01T09:48:24;100169.97;;;29.37;45.56
8229;BME280;4155;50.118;8.714;2022-08-01T09:50:54;100165.25;;;29.78;45.57
8229;BME280;4155;50.118;8.714;2022-08-01T09:53:48;100163.59;;;29.68;44.63
8229;BME280;4155;50.118;8.714;2022-08-01T09:56:21;100166.31;;;28.97;45.90
8229;BME280;4155;50.118;8.714;2022-08-01T09:58:51;100169.06;;;29.51;45.65
8229;BME280;4155;50.118;8.714;2022-08-01T10:01:26;100171.09;;;29.36;44.45
8229;BME280;4155;50.118;8.714;2022-08-01T10:04:09;100165.53;;;29.59;45.06
8229;BME280;4155;50.118;8.714;2022-08-01T10:06:38;100159.84;;;29.02;46.52
8229;BME280;4155;50.118;8.714;2022-08-01T10:09:08;100167.97;;;29.29;45.89
8229;BME280;4155;50.118;8.714;2022-08-01T10:11:36;100158.22;;;28.56;45.90
8229;BME280;4155;50.118;8.714;2022-08-01T10:14:08;100160.16;;;29.00;44.79
8229;BME280;4155;50.118;8.714;2022-08-01T10:16:45;100155.00;;;28.85;45.75
8229;BME280;4155;50.118;8.714;2022-08-01T10:19:23;100157.34;;;29.14;45.15
8229;BME280;4155;50.118;8.714;2022-08-01T10:21:55;100154.19;;;29.07;45.46
8229;BME280;4155;50.118;8.714;2022-08-01T10:24:29;100152.09;;;29.44;44.24
8229;BME280;4155;50.118;8.714;2022-08-01T10:27:02;100149.41;;;29.61;44.01
8229;BME280;4155;50.118;8.714;2022-08-01T10:29:37;100147.03;;;29.85;43.87
8229;BME280;4155;50.118;8.714;2022-08-01T10:32:12;100152.13;;;30.01;42.89
8229;BME280;4155;50.118;8.714;2022-08-01T10:34:40;100147.94;;;29.55;43.04
8229;BME280;4155;50.118;8.714;2022-08-01T10:37:12;100149.94;;;29.01;43.95
8229;BME280;4155;50.118;8.714;2022-08-01T10:39:42;100136.31;;;29.44;43.70
8229;BME280;4155;50.118;8.714;2022-08-01T10:42:12;100133.63;;;30.10;43.45
8229;BME280;4155;50.118;8.714;2022-08-01T10:44:42;100139.16;;;30.44;43.06
8229;BME280;4155;50.118;8.714;2022-08-01T10:47:18;100132.63;;;30.75;41.41
8229;BME280;4155;50.118;8.714;2022-08-01T10:49:57;100136.06;;;31.65;40.47
8229;BME280;4155;50.118;8.714;2022-08-01T10:52:29;100131.44;;;31.49;39.95
8229;BME280;4155;50.118;8.714;2022-08-01T10:55:08;100117.41;;;30.98;41.05
8229;BME280;4155;50.118;8.714;2022-08-01T10:57:43;100117.16;;;30.74;41.08
8229;BME280;4155;50.118;8.714;2022-08-01T11:00:20;100124.72;;;31.03;40.65
8229;BME280;4155;50.118;8.714;2022-08-01T11:02:58;100115.84;;;30.19;41.53
8229;BME280;4155;50.118;8.714;2022-08-01T11:05:28;100120.78;;;30.31;41.79
8229;BME280;4155;50.118;8.714;2022-08-01T11:08:01;100115.91;;;29.54;42.65
8229;BME280;4155;50.118;8.714;2022-08-01T11:10:36;100117.75;;;29.27;43.43
8229;BME280;4155;50.118;8.714;2022-08-01T11:13:06;100119.25;;;28.58;44.12
8229;BME280;4155;50.118;8.714;2022-08-01T11:15:35;100116.63;;;28.30;44.93
8229;BME280;4155;50.118;8.714;2022-08-01T11:18:31;100109.63;;;28.10;45.65
8229;BME280;4155;50.118;8.714;2022-08-01T11:21:03;100113.28;;;28.06;46.04
8229;BME280;4155;50.118;8.714;2022-08-01T11:23:51;100109.50;;;28.15;45.66
8229;BME280;4155;50.118;8.714;2022-08-01T11:26:21;100100.78;;;28.00;44.54
8229;BME280;4155;50.118;8.714;2022-08-01T11:29:15;100109.00;;;28.13;44.79
8229;BME280;4155;50.118;8.714;2022-08-01T11:31:47;100114.31;;;28.10;45.28
8229;BME280;4155;50.118;8.714;2022-08-01T11:34:15;100112.81;;;28.26;45.32
8229;BME280;4155;50.118;8.714;2022-08-01T11:36:42;100102.28;;;28.64;44.31
8229;BME280;4155;50.118;8.714;2022-08-01T11:39:29;100109.75;;;29.57;42.84
8229;BME280;4155;50.118;8.714;2022-08-01T11:42:18;100096.50;;;30.37;41.24
8229;BME280;4155;50.118;8.714;2022-08-01T11:44:48;100089.50;;;30.31;40.90
8229;BME280;4155;50.118;8.714;2022-08-01T11:47:16;100094.53;;;30.46;40.84
8229;BME280;4155;50.118;8.714;2022-08-01T11:49:47;100092.38;;;30.86;40.59
8229;BME280;4155;50.118;8.714;2022-08-01T11:52:26;100092.75;;;31.14;39.79
8229;BME280;4155;50.118;8.714;2022-08-01T11:54:56;100086.16;;;30.89;39.74
8229;BME280;4155;50.118;8.714;2022-08-01T11:57:27;100089.03;;;31.01;39.63
8229;BME280;4155;50.118;8.714;2022-08-01T12:00:04;100073.00;;;31.16;40.07
8229;BME280;4155;50.118;8.714;2022-08-01T12:02:34;100068.88;;;31.39;38.21
8229;BME280;4155;50.118;8.714;2022-08-01T12:05:05;100079.22;;;31.51;38.44
8229;BME280;4155;50.118;8.714;2022-08-01T12:07:35;100073.78;;;30.95;39.29
8229;BME280;4155;50.118;8.714;2022-08-01T12:10:07;100068.81;;;31.48;38.88
8229;BME280;4155;50.118;8.714;2022-08-01T12:12:42;100068.63;;;32.03;37.63
8229;BME280;4155;50.118;8.714;2022-08-01T12:15:11;100062.66;;;31.92;37.94
8229;BME280;4155;50.118;8.714;2022-08-01T12:17:40;100058.84;;;31.76;37.61
8229;BME280;4155;50.118;8.714;2022-08-01T12:20:27;100062.91;;;31.79;37.53
8229;BME280;4155;50.118;8.714;2022-08-01T12:22:58;100065.50;;;32.05;36.98
8229;BME280;4155;50.118;8.714;2022-08-01T12:25:27;100064.78;;;32.29;36.93
8229;BME280;4155;50.118;8.714;2022-08-01T12:27:59;100061.19;;;32.49;36.87
8229;BME280;4155;50.118;8.714;2022-08-01T12:30:27;100063.13;;;32.36;35.30
8229;BME280;4155;50.118;8.714;2022-08-01T12:32:57;100054.16;;;30.36;38.18
8229;BME280;4155;50.118;8.714;2022-08-01T12:35:26;100056.72;;;31.14;38.60
8229;BME280;4155;50.118;8.714;2022-08-01T12:37:57;100047.31;;;31.06;37.87
8229;BME280;4155;50.118;8.714;2022-08-01T12:40:27;100039.25;;;31.81;37.13
8229;BME280;4155;50.118;8.714;2022-08-01T12:42:58;100050.66;;;32.01;36.94
8229;BME280;4155;50.118;8.714;2022-08-01T12:45:30;100056.13;;;32.09;36.79
8229;BME280;4155;50.118;8.714;2022-08-01T12:48:00;100047.31;;;31.65;36.89
8229;BME280;4155;50.118;8.714;2022-08-01T12:50:30;100049.00;;;31.37;37.18
8229;BME280;4155;50.118;8.714;2022-08-01T12:52:59;100059.81;;;31.13;37.27
8229;BME280;4155;50.118;8.714;2022-08-01T12:55:30;100052.81;;;30.77;38.50
8229;BME280;4155;50.118;8.714;2022-08-01T12:58:06;100048.81;;;30.31;39.37
8229;BME280;4155;50.118;8.714;2022-08-01T13:00:42;100049.44;;;30.28;39.22
8229;BME280;4155;50.118;8.714;2022-08-01T13:03:12;100043.28;;;30.31;38.66
8229;BME280;4155;50.118;8.714;2022-08-01T13:05:42;100039.84;;;30.43;38.20
8229;BME280;4155;50.118;8.714;2022-08-01T13:08:11;100036.09;;;30.30;38.80
8229;BME280;4155;50.118;8.714;2022-08-01T13:10:40;100043.03;;;30.71;38.70
8229;BME280;4155;50.118;8.714;2022-08-01T13:13:11;100044.56;;;30.42;38.70
8229;BME280;4155;50.118;8.714;2022-08-01T13:16:03;100044.22;;;30.52;38.45
8229;BME280;4155;50.118;8.714;2022-08-01T13:18:35;100046.53;;;30.97;38.37
8229;BME280;4155;50.118;8.714;2022-08-01T13:21:10;100050.22;;;31.10;37.06
8229;BME280;4155;50.118;8.714;2022-08-01T13:23:39;100045.41;;;30.90;37.27
8229;BME280;4155;50.118;8.714;2022-08-01T13:26:40;100045.81;;;30.71;38.63
8229;BME280;4155;50.118;8.714;2022-08-01T13:29:11;100047.16;;;30.47;39.01
8229;BME280;4155;50.118;8.714;2022-08-01T13:31:40;100050.44;;;30.32;39.50
8229;BME280;4155;50.118;8.714;2022-08-01T13:34:09;100053.03;;;30.20;39.83